sensor_id;sensor_type;location;lat;lon;timestamp;temperature;humidity
29321;DHT22;16323;51.130;6.612;2023-05-07T00:01:17;19.20;75.40
29321;DHT22;16323;51.130;6.612;2023-05-07T00:03:45;19.20;75.40
29321;DHT22;16323;51.130;6.612;2023-05-07T00:06:12;19.20;75.40
29321;DHT22;16323;51.130;6.612;2023-05-07T00:08:38;19.20;75.20
29321;DHT22;16323;51.130;6.612;2023-05-07T00:11:05;19.20;75.20
29321;DHT22;16323;51.130;6.612;2023-05-07T00:13:32;19.20;75.30
29321;DHT22;16323;51.130;6.612;2023-05-07T00:16:01;19.20;75.10
29321;DHT22;16323;51.130;6.612;2023-05-07T00:18:27;19.30;75.00
29321;DHT22;16323;51.130;6.612;2023-05-07T00:20:56;19.20;74.90
29321;DHT22;16323;51.130;6.612;2023-05-07T00:23:23;19.30;74.90
29321;DHT22;16323;51.130;6.612;2023-05-07T00:25:49;19.30;74.90
29321;DHT22;16323;51.130;6.612;2023-05-07T00:28:16;19.30;75.10
29321;DHT22;16323;51.130;6.612;2023-05-07T00:30:43;19.20;75.20
29321;DHT22;16323;51.130;6.612;2023-05-07T00:33:10;19.20;75.30
29321;DHT22;16323;51.130;6.612;2023-05-07T00:35:37;19.30;75.70
29321;DHT22;16323;51.130;6.612;2023-05-07T00:38:05;19.20;75.50
29321;DHT22;16323;51.130;6.612;2023-05-07T00:40:31;19.20;75.50
29321;DHT22;16323;51.130;6.612;2023-05-07T00:42:58;19.20;75.60
29321;DHT22;16323;51.130;6.612;2023-05-07T00:45:26;19.20;75.40
29321;DHT22;16323;51.130;6.612;2023-05-07T00:47:54;19.20;75.50
29321;DHT22;16323;51.130;6.612;2023-05-07T00:50:21;19.20;75.50
29321;DHT22;16323;51.130;6.612;2023-05-07T00:52:49;19.20;75.40
29321;DHT22;16323;51.130;6.612;2023-05-07T00:55:17;19.20;75.40
29321;DHT22;16323;51.130;6.612;2023-05-07T00:57:44;19.20;75.20
29321;DHT22;16323;51.130;6.612;2023-05-07T01:00:12;19.20;75.10
29321;DHT22;16323;51.130;6.612;2023-05-07T01:02:39;19.20;75.20
29321;DHT22;16323;51.130;6.612;2023-05-07T01:05:09;19.20;74.90
29321;DHT22;16323;51.130;6.612;2023-05-07T01:07:37;19.20;75.00
29321;DHT22;16323;51.130;6.612;2023-05-07T01:10:05;19.20;74.90
29321;DHT22;16323;51.130;6.612;2023-05-07T01:12:34;19.20;75.10
29321;DHT22;16323;51.130;6.612;2023-05-07T01:15:02;19.20;75.20
29321;DHT22;16323;51.130;6.612;2023-05-07T01:17:29;19.20;76.30
29321;DHT22;16323;51.130;6.612;2023-05-07T01:19:56;19.20;75.40
29321;DHT22;16323;51.130;6.612;2023-05-07T01:22:29;19.20;75.40
29321;DHT22;16323;51.130;6.612;2023-05-07T01:24:57;19.20;75.50
29321;DHT22;16323;51.130;6.612;2023-05-07T01:27:24;19.20;75.40
29321;DHT22;16323;51.130;6.612;2023-05-07T01:29:51;19.20;75.50
29321;DHT22;16323;51.130;6.612;2023-05-07T01:32:21;19.20;75.40
29321;DHT22;16323;51.130;6.612;2023-05-07T01:34:50;19.20;75.40
29321;DHT22;16323;51.130;6.612;2023-05-07T01:37:17;19.20;75.40
29321;DHT22;16323;51.130;6.612;2023-05-07T01:39:46;19.20;75.30
29321;DHT22;16323;51.130;6.612;2023-05-07T01:42:13;19.20;75.20
29321;DHT22;16323;51.130;6.612;2023-05-07T01:44:40;19.20;75.20
29321;DHT22;16323;51.130;6.612;2023-05-07T01:47:07;19.20;75.10
29321;DHT22;16323;51.130;6.612;2023-05-07T01:49:35;19.20;75.00
29321;DHT22;16323;51.130;6.612;2023-05-07T01:52:02;19.20;75.00
29321;DHT22;16323;51.130;6.612;2023-05-07T01:54:29;19.20;75.00
29321;DHT22;16323;51.130;6.612;2023-05-07T01:56:57;19.20;74.90
29321;DHT22;16323;51.130;6.612;2023-05-07T01:59:24;19.20;75.30
29321;DHT22;16323;51.130;6.612;2023-05-07T02:01:50;19.20;75.30
29321;DHT22;16323;51.130;6.612;2023-05-07T02:04:18;19.20;75.40
29321;DHT22;16323;51.130;6.612;2023-05-07T02:06:44;19.20;75.40
29321;DHT22;16323;51.130;6.612;2023-05-07T02:09:11;19.20;75.40
29321;DHT22;16323;51.130;6.612;2023-05-07T02:11:38;19.20;75.40
29321;DHT22;16323;51.130;6.612;2023-05-07T02:14:06;19.20;75.30
29321;DHT22;16323;51.130;6.612;2023-05-07T02:16:33;19.20;75.40
29321;DHT22;16323;51.130;6.612;2023-05-07T02:19:00;19.20;75.40
29321;DHT22;16323;51.130;6.612;2023-05-07T02:21:26;19.20;75.40
29321;DHT22;16323;51.130;6.612;2023-05-07T02:23:53;19.20;75.20
29321;DHT22;16323;51.130;6.612;2023-05-07T02:26:20;19.20;75.20
29321;DHT22;16323;51.130;6.612;2023-05-07T02:28:47;19.20;75.10
29321;DHT22;16323;51.130;6.612;2023-05-07T02:31:16;19.30;75.10
29321;DHT22;16323;51.130;6.612;2023-05-07T02:33:42;19.20;75.00
29321;DHT22;16323;51.130;6.612;2023-05-07T02:36:11;19.20;74.90
29321;DHT22;16323;51.130;6.612;2023-05-07T02:38:38;19.20;74.80
29321;DHT22;16323;51.130;6.612;2023-05-07T02:41:05;19.20;74.70
29321;DHT22;16323;51.130;6.612;2023-05-07T02:43:32;19.20;74.90
29321;DHT22;16323;51.130;6.612;2023-05-07T02:46:02;19.20;75.00
29321;DHT22;16323;51.130;6.612;2023-05-07T02:48:31;19.20;75.00
29321;DHT22;16323;51.130;6.612;2023-05-07T02:50:57;19.20;74.90
29321;DHT22;16323;51.130;6.612;2023-05-07T02:53:24;19.10;74.80
29321;DHT22;16323;51.130;6.612;2023-05-07T02:55:52;19.10;74.80
29321;DHT22;16323;51.130;6.612;2023-05-07T02:58:19;19.10;74.80
29321;DHT22;16323;51.130;6.612;2023-05-07T03:00:46;19.10;74.90
29321;DHT22;16323;51.130;6.612;2023-05-07T03:03:13;19.10;75.00
29321;DHT22;16323;51.130;6.612;2023-05-07T03:05:41;19.10;75.00
29321;DHT22;16323;51.130;6.612;2023-05-07T03:08:08;19.10;74.70
29321;DHT22;16323;51.130;6.612;2023-05-07T03:10:35;19.10;74.70
29321;DHT22;16323;51.130;6.612;2023-05-07T03:13:03;19.10;74.70
29321;DHT22;16323;51.130;6.612;2023-05-07T03:15:30;19.10;74.50
29321;DHT22;16323;51.130;6.612;2023-05-07T03:17:57;19.10;74.60
29321;DHT22;16323;51.130;6.612;2023-05-07T03:20:24;19.10;74.60
29321;DHT22;16323;51.130;6.612;2023-05-07T03:22:52;19.10;74.50
29321;DHT22;16323;51.130;6.612;2023-05-07T03:25:18;19.20;74.70
29321;DHT22;16323;51.130;6.612;2023-05-07T03:27:45;19.20;74.70
29321;DHT22;16323;51.130;6.612;2023-05-07T03:30:12;19.20;74.90
29321;DHT22;16323;51.130;6.612;2023-05-07T03:32:39;19.20;74.90
29321;DHT22;16323;51.130;6.612;2023-05-07T03:35:06;19.20;75.00
29321;DHT22;16323;51.130;6.612;2023-05-07T03:37:33;19.10;74.80
29321;DHT22;16323;51.130;6.612;2023-05-07T03:40:01;19.10;74.90
29321;DHT22;16323;51.130;6.612;2023-05-07T03:42:29;19.10;74.90
29321;DHT22;16323;51.130;6.612;2023-05-07T03:44:56;19.10;74.90
29321;DHT22;16323;51.130;6.612;2023-05-07T03:47:23;19.10;74.90
29321;DHT22;16323;51.130;6.612;2023-05-07T03:49:49;19.10;74.90
29321;DHT22;16323;51.130;6.612;2023-05-07T03:52:18;19.10;74.80
29321;DHT22;16323;51.130;6.612;2023-05-07T03:54:49;19.10;74.70
29321;DHT22;16323;51.130;6.612;2023-05-07T03:57:17;19.10;74.60
29321;DHT22;16323;51.130;6.612;2023-05-07T03:59:44;19.20;74.70
29321;DHT22;16323;51.130;6.612;2023-05-07T04:02:11;19.20;74.70
29321;DHT22;16323;51.130;6.612;2023-05-07T04:04:37;19.20;74.60
29321;DHT22;16323;51.130;6.612;2023-05-07T04:07:04;19.20;74.60
29321;DHT22;16323;51.130;6.612;2023-05-07T04:09:31;19.20;74.60
29321;DHT22;16323;51.130;6.612;2023-05-07T04:11:58;19.20;74.80
29321;DHT22;16323;51.130;6.612;2023-05-07T04:14:26;19.20;74.80
29321;DHT22;16323;51.130;6.612;2023-05-07T04:16:52;19.20;74.90
29321;DHT22;16323;51.130;6.612;2023-05-07T04:19:19;19.20;74.80
29321;DHT22;16323;51.130;6.612;2023-05-07T04:21:46;19.20;75.00
29321;DHT22;16323;51.130;6.612;2023-05-07T04:24:13;19.20;75.00
29321;DHT22;16323;51.130;6.612;2023-05-07T04:26:40;19.20;75.00
29321;DHT22;16323;51.130;6.612;2023-05-07T04:29:06;19.20;75.00
29321;DHT22;16323;51.130;6.612;2023-05-07T04:31:35;19.10;74.90
29321;DHT22;16323;51.130;6.612;2023-05-07T04:34:02;19.10;74.80
29321;DHT22;16323;51.130;6.612;2023-05-07T04:36:28;19.20;74.90
29321;DHT22;16323;51.130;6.612;2023-05-07T04:38:55;19.20;74.80
29321;DHT22;16323;51.130;6.612;2023-05-07T04:41:22;19.20;74.80
29321;DHT22;16323;51.130;6.612;2023-05-07T04:43:49;19.20;74.60
29321;DHT22;16323;51.130;6.612;2023-05-07T04:46:16;19.20;74.70
29321;DHT22;16323;51.130;6.612;2023-05-07T04:48:45;19.20;74.60
29321;DHT22;16323;51.130;6.612;2023-05-07T04:51:11;19.20;74.50
29321;DHT22;16323;51.130;6.612;2023-05-07T04:53:38;19.20;74.60
29321;DHT22;16323;51.130;6.612;2023-05-07T04:56:05;19.20;75.60
29321;DHT22;16323;51.130;6.612;2023-05-07T04:58:32;19.20;74.70
29321;DHT22;16323;51.130;6.612;2023-05-07T05:00:59;19.20;74.70
29321;DHT22;16323;51.130;6.612;2023-05-07T05:03:26;19.20;74.80
29321;DHT22;16323;51.130;6.612;2023-05-07T05:05:54;19.20;74.80
29321;DHT22;16323;51.130;6.612;2023-05-07T05:08:22;19.20;74.80
29321;DHT22;16323;51.130;6.612;2023-05-07T05:10:49;19.20;74.80
29321;DHT22;16323;51.130;6.612;2023-05-07T05:13:16;19.10;74.70
29321;DHT22;16323;51.130;6.612;2023-05-07T05:15:43;19.20;74.80
29321;DHT22;16323;51.130;6.612;2023-05-07T05:18:09;19.20;74.90
29321;DHT22;16323;51.130;6.612;2023-05-07T05:20:36;19.20;74.80
29321;DHT22;16323;51.130;6.612;2023-05-07T05:23:04;19.20;74.90
29321;DHT22;16323;51.130;6.612;2023-05-07T05:25:31;19.20;74.60
29321;DHT22;16323;51.130;6.612;2023-05-07T05:27:58;19.20;74.50
29321;DHT22;16323;51.130;6.612;2023-05-07T05:30:25;19.20;74.40
29321;DHT22;16323;51.130;6.612;2023-05-07T05:32:51;19.20;74.40
29321;DHT22;16323;51.130;6.612;2023-05-07T05:35:18;19.20;74.30
29321;DHT22;16323;51.130;6.612;2023-05-07T05:37:45;19.20;74.40
29321;DHT22;16323;51.130;6.612;2023-05-07T05:40:13;19.20;74.40
29321;DHT22;16323;51.130;6.612;2023-05-07T05:42:40;19.20;74.50
29321;DHT22;16323;51.130;6.612;2023-05-07T05:45:10;19.20;75.60
29321;DHT22;16323;51.130;6.612;2023-05-07T05:47:37;19.20;74.60
29321;DHT22;16323;51.130;6.612;2023-05-07T05:50:05;19.20;74.60
29321;DHT22;16323;51.130;6.612;2023-05-07T05:52:32;19.20;74.60
29321;DHT22;16323;51.130;6.612;2023-05-07T05:54:59;19.20;74.60
29321;DHT22;16323;51.130;6.612;2023-05-07T05:57:27;19.20;74.70
29321;DHT22;16323;51.130;6.612;2023-05-07T05:59:55;19.20;74.60
29321;DHT22;16323;51.130;6.612;2023-05-07T06:02:21;19.20;74.60
29321;DHT22;16323;51.130;6.612;2023-05-07T06:04:48;19.20;74.60
29321;DHT22;16323;51.130;6.612;2023-05-07T06:07:15;19.20;74.50
29321;DHT22;16323;51.130;6.612;2023-05-07T06:09:42;19.20;74.30
29321;DHT22;16323;51.130;6.612;2023-05-07T06:12:08;19.20;74.30
29321;DHT22;16323;51.130;6.612;2023-05-07T06:14:37;19.20;74.20
29321;DHT22;16323;51.130;6.612;2023-05-07T06:17:03;19.20;74.20
29321;DHT22;16323;51.130;6.612;2023-05-07T06:19:30;19.20;74.20
29321;DHT22;16323;51.130;6.612;2023-05-07T06:21:57;19.20;74.20
29321;DHT22;16323;51.130;6.612;2023-05-07T06:24:24;19.20;74.20
29321;DHT22;16323;51.130;6.612;2023-05-07T06:26:51;19.20;74.30
29321;DHT22;16323;51.130;6.612;2023-05-07T06:29:18;19.20;74.40
29321;DHT22;16323;51.130;6.612;2023-05-07T06:31:46;19.20;74.50
29321;DHT22;16323;51.130;6.612;2023-05-07T06:34:13;19.20;74.40
29321;DHT22;16323;51.130;6.612;2023-05-07T06:36:40;19.20;74.40
29321;DHT22;16323;51.130;6.612;2023-05-07T06:39:07;19.20;74.50
29321;DHT22;16323;51.130;6.612;2023-05-07T06:41:34;19.20;74.40
29321;DHT22;16323;51.130;6.612;2023-05-07T06:44:01;19.20;74.40
29321;DHT22;16323;51.130;6.612;2023-05-07T06:46:27;19.20;74.50
29321;DHT22;16323;51.130;6.612;2023-05-07T06:48:56;19.20;74.30
29321;DHT22;16323;51.130;6.612;2023-05-07T06:51:23;19.20;74.40
29321;DHT22;16323;51.130;6.612;2023-05-07T06:53:50;19.20;74.30
29321;DHT22;16323;51.130;6.612;2023-05-07T06:56:16;19.20;74.30
29321;DHT22;16323;51.130;6.612;2023-05-07T06:58:43;19.20;74.20
29321;DHT22;16323;51.130;6.612;2023-05-07T07:01:10;19.20;74.10
29321;DHT22;16323;51.130;6.612;2023-05-07T07:03:37;19.20;74.00
29321;DHT22;16323;51.130;6.612;2023-05-07T07:06:05;19.30;74.30
29321;DHT22;16323;51.130;6.612;2023-05-07T07:08:32;19.30;74.30
29321;DHT22;16323;51.130;6.612;2023-05-07T07:10:59;19.20;75.40
29321;DHT22;16323;51.130;6.612;2023-05-07T07:13:26;19.30;74.60
29321;DHT22;16323;51.130;6.612;2023-05-07T07:15:53;19.20;74.50
29321;DHT22;16323;51.130;6.612;2023-05-07T07:18:20;19.20;74.50
29321;DHT22;16323;51.130;6.612;2023-05-07T07:20:47;19.30;74.50
29321;DHT22;16323;51.130;6.612;2023-05-07T07:23:15;19.20;74.50
29321;DHT22;16323;51.130;6.612;2023-05-07T07:25:42;19.20;74.50
29321;DHT22;16323;51.130;6.612;2023-05-07T07:28:08;19.20;74.50
29321;DHT22;16323;51.130;6.612;2023-05-07T07:30:36;19.20;74.50
29321;DHT22;16323;51.130;6.612;2023-05-07T07:33:03;19.20;74.50
29321;DHT22;16323;51.130;6.612;2023-05-07T07:35:30;19.20;74.50
29321;DHT22;16323;51.130;6.612;2023-05-07T07:37:57;19.20;74.30
29321;DHT22;16323;51.130;6.612;2023-05-07T07:40:25;19.20;74.30
29321;DHT22;16323;51.130;6.612;2023-05-07T07:42:53;19.30;74.40
29321;DHT22;16323;51.130;6.612;2023-05-07T07:45:20;19.30;74.30
29321;DHT22;16323;51.130;6.612;2023-05-07T07:47:47;19.30;74.30
29321;DHT22;16323;51.130;6.612;2023-05-07T07:50:14;19.20;74.20
29321;DHT22;16323;51.130;6.612;2023-05-07T07:52:40;19.30;74.40
29321;DHT22;16323;51.130;6.612;2023-05-07T07:55:08;19.30;74.50
29321;DHT22;16323;51.130;6.612;2023-05-07T07:57:36;19.30;74.30
29321;DHT22;16323;51.130;6.612;2023-05-07T08:00:04;19.30;74.50
29321;DHT22;16323;51.130;6.612;2023-05-07T08:02:32;19.30;74.60
29321;DHT22;16323;51.130;6.612;2023-05-07T08:04:59;19.30;74.80
29321;DHT22;16323;51.130;6.612;2023-05-07T08:07:26;19.30;74.90
29321;DHT22;16323;51.130;6.612;2023-05-07T08:09:53;19.30;74.90
29321;DHT22;16323;51.130;6.612;2023-05-07T08:12:20;19.30;74.90
29321;DHT22;16323;51.130;6.612;2023-05-07T08:14:48;19.30;75.00
29321;DHT22;16323;51.130;6.612;2023-05-07T08:17:15;19.30;74.90
29321;DHT22;16323;51.130;6.612;2023-05-07T08:19:42;19.30;74.70
29321;DHT22;16323;51.130;6.612;2023-05-07T08:22:09;19.20;74.60
29321;DHT22;16323;51.130;6.612;2023-05-07T08:24:36;19.30;74.60
29321;DHT22;16323;51.130;6.612;2023-05-07T08:27:03;19.30;74.50
29321;DHT22;16323;51.130;6.612;2023-05-07T08:29:29;19.30;74.50
29321;DHT22;16323;51.130;6.612;2023-05-07T08:31:58;19.30;74.40
29321;DHT22;16323;51.130;6.612;2023-05-07T08:34:24;19.30;74.40
29321;DHT22;16323;51.130;6.612;2023-05-07T08:36:51;19.30;74.50
29321;DHT22;16323;51.130;6.612;2023-05-07T08:39:18;19.30;74.70
29321;DHT22;16323;51.130;6.612;2023-05-07T08:41:45;19.30;74.90
29321;DHT22;16323;51.130;6.612;2023-05-07T08:44:13;19.30;75.00
29321;DHT22;16323;51.130;6.612;2023-05-07T08:46:43;19.30;74.90
29321;DHT22;16323;51.130;6.612;2023-05-07T08:49:15;19.30;74.90
29321;DHT22;16323;51.130;6.612;2023-05-07T08:51:42;19.30;74.90
29321;DHT22;16323;51.130;6.612;2023-05-07T08:54:09;19.30;74.90
29321;DHT22;16323;51.130;6.612;2023-05-07T08:56:37;19.30;74.90
29321;DHT22;16323;51.130;6.612;2023-05-07T08:59:05;19.30;74.90
29321;DHT22;16323;51.130;6.612;2023-05-07T09:01:32;19.30;74.90
29321;DHT22;16323;51.130;6.612;2023-05-07T09:04:01;19.30;74.80
29321;DHT22;16323;51.130;6.612;2023-05-07T09:06:29;19.30;74.60
29321;DHT22;16323;51.130;6.612;2023-05-07T09:08:56;19.30;74.50
29321;DHT22;16323;51.130;6.612;2023-05-07T09:11:24;19.30;74.30
29321;DHT22;16323;51.130;6.612;2023-05-07T09:13:53;19.30;74.30
29321;DHT22;16323;51.130;6.612;2023-05-07T09:16:21;19.30;74.20
29321;DHT22;16323;51.130;6.612;2023-05-07T09:18:50;19.30;74.20
29321;DHT22;16323;51.130;6.612;2023-05-07T09:21:18;19.30;74.30
29321;DHT22;16323;51.130;6.612;2023-05-07T09:23:48;19.30;74.30
29321;DHT22;16323;51.130;6.612;2023-05-07T09:26:14;19.30;74.30
29321;DHT22;16323;51.130;6.612;2023-05-07T09:28:42;19.30;74.30
29321;DHT22;16323;51.130;6.612;2023-05-07T09:31:09;19.30;74.40
29321;DHT22;16323;51.130;6.612;2023-05-07T09:33:37;19.30;74.40
29321;DHT22;16323;51.130;6.612;2023-05-07T09:36:04;19.30;74.50
29321;DHT22;16323;51.130;6.612;2023-05-07T09:38:32;19.30;74.50
29321;DHT22;16323;51.130;6.612;2023-05-07T09:41:04;19.30;74.50
29321;DHT22;16323;51.130;6.612;2023-05-07T09:43:34;19.30;74.50
29321;DHT22;16323;51.130;6.612;2023-05-07T09:46:07;19.30;74.30
29321;DHT22;16323;51.130;6.612;2023-05-07T09:48:38;19.30;74.20
29321;DHT22;16323;51.130;6.612;2023-05-07T09:51:15;19.30;74.00
29321;DHT22;16323;51.130;6.612;2023-05-07T09:53:45;19.30;74.00
29321;DHT22;16323;51.130;6.612;2023-05-07T09:56:14;19.30;73.90
29321;DHT22;16323;51.130;6.612;2023-05-07T09:58:42;19.30;73.90
29321;DHT22;16323;51.130;6.612;2023-05-07T10:01:10;19.30;73.80
29321;DHT22;16323;51.130;6.612;2023-05-07T10:03:40;19.40;74.00
29321;DHT22;16323;51.130;6.612;2023-05-07T10:06:09;19.40;74.10
29321;DHT22;16323;51.130;6.612;2023-05-07T10:08:36;19.40;74.20
29321;DHT22;16323;51.130;6.612;2023-05-07T10:11:04;19.40;74.30
29321;DHT22;16323;51.130;6.612;2023-05-07T10:13:33;19.40;74.20
29321;DHT22;16323;51.130;6.612;2023-05-07T10:16:03;19.30;74.20
29321;DHT22;16323;51.130;6.612;2023-05-07T10:18:31;19.30;74.20
29321;DHT22;16323;51.130;6.612;2023-05-07T10:21:02;19.30;74.20
29321;DHT22;16323;51.130;6.612;2023-05-07T10:23:31;19.30;74.10
29321;DHT22;16323;51.130;6.612;2023-05-07T10:26:00;19.30;73.90
29321;DHT22;16323;51.130;6.612;2023-05-07T10:28:29;19.30;73.80
29321;DHT22;16323;51.130;6.612;2023-05-07T10:31:07;19.30;73.80
29321;DHT22;16323;51.130;6.612;2023-05-07T10:33:36;19.40;73.80
29321;DHT22;16323;51.130;6.612;2023-05-07T10:36:05;19.40;74.80
29321;DHT22;16323;51.130;6.612;2023-05-07T10:38:33;19.40;73.70
29321;DHT22;16323;51.130;6.612;2023-05-07T10:41:00;19.40;73.70
29321;DHT22;16323;51.130;6.612;2023-05-07T10:43:39;19.40;73.60
29321;DHT22;16323;51.130;6.612;2023-05-07T10:46:14;19.40;73.60
29321;DHT22;16323;51.130;6.612;2023-05-07T10:49:06;19.40;73.60
29321;DHT22;16323;51.130;6.612;2023-05-07T10:51:34;19.40;73.70
29321;DHT22;16323;51.130;6.612;2023-05-07T10:54:22;19.40;73.80
29321;DHT22;16323;51.130;6.612;2023-05-07T10:56:52;19.40;73.90
29321;DHT22;16323;51.130;6.612;2023-05-07T10:59:37;19.40;74.00
29321;DHT22;16323;51.130;6.612;2023-05-07T11:02:09;19.40;74.00
29321;DHT22;16323;51.130;6.612;2023-05-07T11:04:39;19.40;74.10
29321;DHT22;16323;51.130;6.612;2023-05-07T11:07:28;19.40;74.70
29321;DHT22;16323;51.130;6.612;2023-05-07T11:10:02;19.40;74.30
29321;DHT22;16323;51.130;6.612;2023-05-07T11:12:49;19.40;74.20
29321;DHT22;16323;51.130;6.612;2023-05-07T11:15:36;19.40;74.20
29321;DHT22;16323;51.130;6.612;2023-05-07T11:18:05;19.40;74.20
29321;DHT22;16323;51.130;6.612;2023-05-07T11:20:54;19.40;74.00
29321;DHT22;16323;51.130;6.612;2023-05-07T11:23:55;19.40;74.90
29321;DHT22;16323;51.130;6.612;2023-05-07T11:26:23;19.40;73.80
29321;DHT22;16323;51.130;6.612;2023-05-07T11:28:51;19.40;73.70
29321;DHT22;16323;51.130;6.612;2023-05-07T11:31:21;19.40;73.60
29321;DHT22;16323;51.130;6.612;2023-05-07T11:33:50;19.40;73.60
29321;DHT22;16323;51.130;6.612;2023-05-07T11:36:18;19.40;73.70
29321;DHT22;16323;51.130;6.612;2023-05-07T11:38:46;19.40;73.80
29321;DHT22;16323;51.130;6.612;2023-05-07T11:41:13;19.40;73.80
29321;DHT22;16323;51.130;6.612;2023-05-07T11:43:54;19.40;73.90
29321;DHT22;16323;51.130;6.612;2023-05-07T11:46:21;19.40;73.80
29321;DHT22;16323;51.130;6.612;2023-05-07T11:48:49;19.40;73.80
29321;DHT22;16323;51.130;6.612;2023-05-07T11:51:20;19.40;73.70
29321;DHT22;16323;51.130;6.612;2023-05-07T11:53:47;19.40;73.60
29321;DHT22;16323;51.130;6.612;2023-05-07T11:56:15;19.40;73.70
29321;DHT22;16323;51.130;6.612;2023-05-07T11:58:43;19.40;73.50
29321;DHT22;16323;51.130;6.612;2023-05-07T12:01:12;19.40;73.50
29321;DHT22;16323;51.130;6.612;2023-05-07T12:03:40;19.40;73.40
29321;DHT22;16323;51.130;6.612;2023-05-07T12:06:10;19.40;73.30
29321;DHT22;16323;51.130;6.612;2023-05-07T12:08:38;19.40;73.30
29321;DHT22;16323;51.130;6.612;2023-05-07T12:11:10;19.40;73.20
29321;DHT22;16323;51.130;6.612;2023-05-07T12:13:39;19.40;73.10
29321;DHT22;16323;51.130;6.612;2023-05-07T12:16:06;19.40;73.00
29321;DHT22;16323;51.130;6.612;2023-05-07T12:18:35;19.40;73.00
29321;DHT22;16323;51.130;6.612;2023-05-07T12:21:02;19.40;73.10
29321;DHT22;16323;51.130;6.612;2023-05-07T12:23:31;19.40;73.10
29321;DHT22;16323;51.130;6.612;2023-05-07T12:25:59;19.40;73.10
29321;DHT22;16323;51.130;6.612;2023-05-07T12:28:26;19.40;73.10
29321;DHT22;16323;51.130;6.612;2023-05-07T12:30:53;19.40;73.10
29321;DHT22;16323;51.130;6.612;2023-05-07T12:33:24;19.40;73.10
29321;DHT22;16323;51.130;6.612;2023-05-07T12:35:53;19.40;73.10
29321;DHT22;16323;51.130;6.612;2023-05-07T12:38:21;19.40;73.10
29321;DHT22;16323;51.130;6.612;2023-05-07T12:40:49;19.40;73.10
29321;DHT22;16323;51.130;6.612;2023-05-07T12:43:17;19.40;72.90
29321;DHT22;16323;51.130;6.612;2023-05-07T12:45:46;19.40;72.90
29321;DHT22;16323;51.130;6.612;2023-05-07T12:48:13;19.40;72.80
29321;DHT22;16323;51.130;6.612;2023-05-07T12:50:40;19.40;72.80
29321;DHT22;16323;51.130;6.612;2023-05-07T12:53:07;19.40;72.70
29321;DHT22;16323;51.130;6.612;2023-05-07T12:55:42;19.40;72.70
29321;DHT22;16323;51.130;6.612;2023-05-07T12:58:16;19.40;72.70
29321;DHT22;16323;51.130;6.612;2023-05-07T13:00:43;19.40;72.60
29321;DHT22;16323;51.130;6.612;2023-05-07T13:03:10;19.40;72.60
29321;DHT22;16323;51.130;6.612;2023-05-07T13:05:37;19.40;72.70
29321;DHT22;16323;51.130;6.612;2023-05-07T13:08:04;19.40;72.70
29321;DHT22;16323;51.130;6.612;2023-05-07T13:10:31;19.40;72.80
29321;DHT22;16323;51.130;6.612;2023-05-07T13:12:59;19.40;72.80
29321;DHT22;16323;51.130;6.612;2023-05-07T13:15:27;19.40;72.80
29321;DHT22;16323;51.130;6.612;2023-05-07T13:17:54;19.40;72.80
29321;DHT22;16323;51.130;6.612;2023-05-07T13:20:21;19.40;72.80
29321;DHT22;16323;51.130;6.612;2023-05-07T13:22:48;19.40;72.80
29321;DHT22;16323;51.130;6.612;2023-05-07T13:25:15;19.40;72.70
29321;DHT22;16323;51.130;6.612;2023-05-07T13:27:42;19.40;72.70
29321;DHT22;16323;51.130;6.612;2023-05-07T13:30:09;19.40;72.60
29321;DHT22;16323;51.130;6.612;2023-05-07T13:32:37;19.40;72.60
29321;DHT22;16323;51.130;6.612;2023-05-07T13:35:04;19.40;72.70
29321;DHT22;16323;51.130;6.612;2023-05-07T13:37:31;19.40;72.70
29321;DHT22;16323;51.130;6.612;2023-05-07T13:39:58;19.40;72.80
29321;DHT22;16323;51.130;6.612;2023-05-07T13:42:25;19.40;72.70
29321;DHT22;16323;51.130;6.612;2023-05-07T13:44:52;19.40;72.60
29321;DHT22;16323;51.130;6.612;2023-05-07T13:47:18;19.40;72.80
29321;DHT22;16323;51.130;6.612;2023-05-07T13:49:46;19.40;72.90
29321;DHT22;16323;51.130;6.612;2023-05-07T13:52:15;19.40;73.00
29321;DHT22;16323;51.130;6.612;2023-05-07T13:54:41;19.40;73.10
29321;DHT22;16323;51.130;6.612;2023-05-07T13:57:08;19.40;73.30
29321;DHT22;16323;51.130;6.612;2023-05-07T13:59:35;19.40;73.40
29321;DHT22;16323;51.130;6.612;2023-05-07T14:02:02;19.40;73.50
29321;DHT22;16323;51.130;6.612;2023-05-07T14:04:29;19.40;73.40
29321;DHT22;16323;51.130;6.612;2023-05-07T14:06:58;19.40;73.50
29321;DHT22;16323;51.130;6.612;2023-05-07T14:09:25;19.40;73.50
29321;DHT22;16323;51.130;6.612;2023-05-07T14:11:51;19.40;73.40
29321;DHT22;16323;51.130;6.612;2023-05-07T14:14:18;19.40;73.30
29321;DHT22;16323;51.130;6.612;2023-05-07T14:16:45;19.40;73.30
29321;DHT22;16323;51.130;6.612;2023-05-07T14:19:12;19.40;73.30
29321;DHT22;16323;51.130;6.612;2023-05-07T14:21:39;19.40;73.20
29321;DHT22;16323;51.130;6.612;2023-05-07T14:24:07;19.40;73.30
29321;DHT22;16323;51.130;6.612;2023-05-07T14:26:34;19.40;73.30
29321;DHT22;16323;51.130;6.612;2023-05-07T14:29:01;19.40;73.30
29321;DHT22;16323;51.130;6.612;2023-05-07T14:31:28;19.40;73.50
29321;DHT22;16323;51.130;6.612;2023-05-07T14:33:56;19.40;73.70
29321;DHT22;16323;51.130;6.612;2023-05-07T14:36:23;19.40;73.80
29321;DHT22;16323;51.130;6.612;2023-05-07T14:38:51;19.40;73.90
29321;DHT22;16323;51.130;6.612;2023-05-07T14:41:19;19.40;74.10
29321;DHT22;16323;51.130;6.612;2023-05-07T14:43:47;19.40;74.30
29321;DHT22;16323;51.130;6.612;2023-05-07T14:46:15;19.40;74.70
29321;DHT22;16323;51.130;6.612;2023-05-07T14:48:43;19.40;75.10
29321;DHT22;16323;51.130;6.612;2023-05-07T14:51:10;19.40;75.30
29321;DHT22;16323;51.130;6.612;2023-05-07T14:53:37;19.40;75.60
29321;DHT22;16323;51.130;6.612;2023-05-07T14:56:04;19.40;75.40
29321;DHT22;16323;51.130;6.612;2023-05-07T14:58:33;19.40;75.60
29321;DHT22;16323;51.130;6.612;2023-05-07T15:01:00;19.40;76.50
29321;DHT22;16323;51.130;6.612;2023-05-07T15:03:28;19.40;75.80
29321;DHT22;16323;51.130;6.612;2023-05-07T15:05:55;19.40;75.90
29321;DHT22;16323;51.130;6.612;2023-05-07T15:08:21;19.40;76.30
29321;DHT22;16323;51.130;6.612;2023-05-07T15:10:48;19.40;76.30
29321;DHT22;16323;51.130;6.612;2023-05-07T15:13:15;19.40;76.50
29321;DHT22;16323;51.130;6.612;2023-05-07T15:15:44;19.40;76.50
29321;DHT22;16323;51.130;6.612;2023-05-07T15:18:11;19.40;76.70
29321;DHT22;16323;51.130;6.612;2023-05-07T15:20:38;19.40;77.40
29321;DHT22;16323;51.130;6.612;2023-05-07T15:23:06;19.40;77.20
29321;DHT22;16323;51.130;6.612;2023-05-07T15:25:35;19.40;77.70
29321;DHT22;16323;51.130;6.612;2023-05-07T15:28:02;19.40;77.50
29321;DHT22;16323;51.130;6.612;2023-05-07T15:30:29;19.40;77.70
29321;DHT22;16323;51.130;6.612;2023-05-07T15:32:57;19.40;77.30
29321;DHT22;16323;51.130;6.612;2023-05-07T15:35:24;19.40;77.10